Time;durP1;ratioP1;P1;durP2;ratioP2;P2;SDS_P1;SDS_P2;PMS_P1;PMS_P2;Temp;Humidity;BMP_temperature;BMP_pressure;BME280_temperature;BME280_humidity;BME280_pressure;Samples;Min_cycle;Max_cycle;Signal;HPM_P1;HPM_P2
2020/12/23 00:01:40;;;;;;;5.63;1.80;;;;;;;13.48;100.00;100584.41;5075704;28;20047;-67
2020/12/23 00:04:24;;;;;;;3.28;1.75;;;;;;;13.55;100.00;100588.16;5075921;28;20048;-67
2020/12/23 00:07:11;;;;;;;4.13;1.52;;;;;;;13.59;100.00;100584.16;5060175;28;20056;-67
2020/12/23 00:09:54;;;;;;;9.25;2.20;;;;;;;13.60;100.00;100575.09;5074225;28;20043;-67
2020/12/23 00:12:38;;;;;;;1.60;1.45;;;;;;;13.58;100.00;100582.47;5074276;28;20523;-67
2020/12/23 00:15:22;;;;;;;1.58;1.45;;;;;;;13.58;100.00;100594.00;5075553;28;20052;-67
2020/12/23 00:18:07;;;;;;;2.05;1.48;;;;;;;13.58;100.00;100585.16;5075490;28;20492;-67
2020/12/23 00:20:51;;;;;;;3.35;1.63;;;;;;;13.64;100.00;100584.50;5060196;28;20126;-67
2020/12/23 00:23:35;;;;;;;2.70;1.55;;;;;;;13.65;100.00;100583.53;5075393;28;20048;-67
2020/12/23 00:26:19;;;;;;;3.63;1.63;;;;;;;13.66;100.00;100569.13;5059788;28;20047;-67
2020/12/23 00:29:03;;;;;;;2.88;1.60;;;;;;;13.61;100.00;100584.81;5075175;28;20094;-68
2020/12/23 00:31:51;;;;;;;4.30;1.92;;;;;;;13.62;100.00;100578.47;5074980;28;20056;-67
2020/12/23 00:34:35;;;;;;;3.65;1.70;;;;;;;13.60;100.00;100575.97;5074086;28;20118;-67
2020/12/23 00:37:19;;;;;;;5.25;1.88;;;;;;;13.65;100.00;100570.13;5074849;28;20186;-67
2020/12/23 00:40:04;;;;;;;2.10;1.70;;;;;;;13.62;100.00;100567.75;5075014;28;20043;-67
2020/12/23 00:42:48;;;;;;;2.38;1.73;;;;;;;13.59;100.00;100563.56;5073710;28;20136;-67
2020/12/23 00:45:32;;;;;;;1.33;1.23;;;;;;;13.59;100.00;100573.44;5074634;28;20051;-67
2020/12/23 00:48:17;;;;;;;4.38;1.70;;;;;;;13.56;100.00;100582.63;5073581;28;20102;-68
2020/12/23 00:51:01;;;;;;;2.10;1.88;;;;;;;13.52;100.00;100577.72;5074467;28;20039;-68
2020/12/23 00:53:45;;;;;;;3.33;1.80;;;;;;;13.45;100.00;100576.69;5074743;28;20507;-68
2020/12/23 00:56:29;;;;;;;2.67;1.75;;;;;;;13.41;100.00;100568.09;5074291;28;20447;-68
2020/12/23 00:59:14;;;;;;;1.77;1.50;;;;;;;13.35;100.00;100560.69;5073372;28;20559;-67
2020/12/23 01:02:01;;;;;;;1.92;1.63;;;;;;;13.29;100.00;100565.81;5073569;28;20555;-67
2020/12/23 01:04:45;;;;;;;4.72;2.00;;;;;;;13.29;100.00;100565.81;5073537;28;20155;-67
2020/12/23 01:07:29;;;;;;;3.60;2.13;;;;;;;13.25;100.00;100569.81;5059489;28;20123;-68
2020/12/23 01:10:13;;;;;;;2.25;1.95;;;;;;;13.34;100.00;100563.53;5074214;28;20056;-67
2020/12/23 01:12:57;;;;;;;5.57;2.15;;;;;;;13.32;100.00;100554.78;5074407;28;20086;-68
2020/12/23 01:15:41;;;;;;;2.80;2.00;;;;;;;13.35;100.00;100562.53;5073040;28;20098;-68
2020/12/23 01:18:25;;;;;;;3.83;1.95;;;;;;;13.36;100.00;100577.59;5073979;28;20044;-68
2020/12/23 01:21:09;;;;;;;2.80;1.95;;;;;;;13.29;100.00;100560.47;5073159;28;20043;-68
2020/12/23 01:23:53;;;;;;;3.25;1.95;;;;;;;13.22;100.00;100559.38;5074158;28;20090;-68
2020/12/23 01:26:37;;;;;;;2.75;1.80;;;;;;;13.15;100.00;100555.66;5072989;28;20729;-67
2020/12/23 01:29:21;;;;;;;2.28;1.98;;;;;;;13.13;100.00;100561.16;5072514;28;20527;-68
2020/12/23 01:32:05;;;;;;;3.28;2.00;;;;;;;13.11;100.00;100565.84;5073767;28;20421;-68
2020/12/23 01:34:49;;;;;;;4.68;2.10;;;;;;;13.12;100.00;100569.34;5072946;28;20055;-68
2020/12/23 01:37:33;;;;;;;1.65;1.55;;;;;;;13.08;100.00;100568.81;5072723;28;20087;-65
2020/12/23 01:40:17;;;;;;;2.63;2.10;;;;;;;13.04;100.00;100566.59;5072567;28;20075;-67
2020/12/23 01:43:01;;;;;;;3.33;1.85;;;;;;;12.98;100.00;100556.50;5072782;28;20047;-67
2020/12/23 01:45:45;;;;;;;4.45;2.15;;;;;;;12.95;100.00;100562.16;5072794;28;20413;-67
2020/12/23 01:48:31;;;;;;;2.22;2.03;;;;;;;12.94;100.00;100566.66;5073915;28;20052;-68
2020/12/23 01:51:15;;;;;;;5.93;2.22;;;;;;;12.92;100.00;100568.63;5072692;28;20035;-68
2020/12/23 01:53:59;;;;;;;3.03;1.90;;;;;;;12.93;100.00;100580.19;5072357;28;20075;-68
2020/12/23 01:56:43;;;;;;;3.65;1.95;;;;;;;12.92;100.00;100573.13;5073240;28;20047;-68
2020/12/23 01:59:28;;;;;;;3.47;1.92;;;;;;;12.91;100.00;100574.09;5073342;28;20090;-68
2020/12/23 02:02:32;;;;;;;2.90;1.73;;;;;;;12.89;100.00;100578.78;5072824;28;20056;-68
2020/12/23 02:05:18;;;;;;;10.35;1.85;;;;;;;12.85;100.00;100583.59;5073552;28;20044;-68
2020/12/23 02:08:02;;;;;;;3.55;2.22;;;;;;;12.78;100.00;100562.94;5072385;28;20504;-67
2020/12/23 02:10:49;;;;;;;5.85;2.38;;;;;;;12.72;100.00;100592.97;5073153;28;20421;-68
2020/12/23 02:13:37;;;;;;;4.00;2.25;;;;;;;12.66;100.00;100565.97;5073453;28;20136;-68
2020/12/23 02:16:21;;;;;;;5.38;2.15;;;;;;;12.63;100.00;100560.94;5072183;28;20047;-68
2020/12/23 02:19:06;;;;;;;2.75;1.85;;;;;;;12.61;100.00;100550.38;5072705;28;20511;-68
2020/12/23 02:21:51;;;;;;;4.38;1.98;;;;;;;12.56;100.00;100549.13;5072115;28;20470;-68
2020/12/23 02:24:35;;;;;;;3.70;2.70;;;;;;;12.54;100.00;100552.00;5073376;28;20106;-68
2020/12/23 02:27:20;;;;;;;5.32;2.40;;;;;;;12.54;100.00;100562.69;5072931;28;20459;-68
2020/12/23 02:30:06;;;;;;;2.92;2.10;;;;;;;12.50;100.00;100555.09;5071917;28;20404;-68
2020/12/23 02:32:50;;;;;;;2.78;2.30;;;;;;;12.48;100.00;100559.78;5071973;28;20133;-68
2020/12/23 02:35:34;;;;;;;5.47;2.40;;;;;;;12.46;100.00;100570.59;5071958;28;20474;-69
2020/12/23 02:38:18;;;;;;;4.70;2.60;;;;;;;12.46;100.00;100559.06;5072094;28;20572;-69
2020/12/23 02:41:02;;;;;;;3.78;2.70;;;;;;;12.42;100.00;100558.53;5073250;28;20534;-69
2020/12/23 02:43:47;;;;;;;4.07;2.20;;;;;;;12.38;100.00;100550.97;5076952;28;20097;-69
2020/12/23 02:46:31;;;;;;;4.32;2.50;;;;;;;12.37;100.00;100544.75;5076840;28;20048;-70
2020/12/23 02:49:15;;;;;;;3.92;2.30;;;;;;;12.38;100.00;100549.09;5075939;28;20067;-69
2020/12/23 02:51:59;;;;;;;4.18;2.42;;;;;;;12.35;100.00;100529.84;5076062;28;20496;-69
2020/12/23 02:54:43;;;;;;;3.83;2.95;;;;;;;12.35;100.00;100530.69;5076002;28;20075;-69
2020/12/23 02:57:27;;;;;;;3.60;2.70;;;;;;;12.31;100.00;100523.94;5075767;28;20082;-69
2020/12/23 03:00:11;;;;;;;3.60;2.53;;;;;;;12.33;100.00;100529.16;5076612;28;20051;-69
2020/12/23 03:02:56;;;;;;;3.33;2.40;;;;;;;12.33;100.00;100513.97;5076719;28;20051;-69
2020/12/23 03:05:40;;;;;;;6.70;2.55;;;;;;;12.32;100.00;100514.97;5075537;28;20546;-69
2020/12/23 03:08:24;;;;;;;3.38;2.72;;;;;;;12.31;100.00;100515.94;5075398;28;20063;-69
2020/12/23 03:11:08;;;;;;;3.58;2.75;;;;;;;12.34;100.00;100506.78;5075642;28;20536;-69
2020/12/23 03:13:52;;;;;;;3.50;2.70;;;;;;;12.34;100.00;100515.66;5075626;28;20094;-68
2020/12/23 03:16:36;;;;;;;0.30;0.30;;;;;;;12.35;100.00;100530.69;5075271;28;20106;-69
2020/12/23 03:19:20;;;;;;;0.20;0.20;;;;;;;12.35;100.00;100514.66;5076511;28;20430;-69
2020/12/23 03:22:04;;;;;;;0.10;0.10;;;;;;;12.37;100.00;100520.69;5061201;28;20401;-69
2020/12/23 03:24:48;;;;;;;0.13;0.13;;;;;;;12.37;100.00;100511.81;5076587;28;20454;-69
2020/12/23 03:27:32;;;;;;;0.22;0.22;;;;;;;12.37;100.00;100510.00;5076438;28;20047;-69
2020/12/23 03:30:16;;;;;;;0.10;0.10;;;;;;;12.44;100.00;100507.56;5076281;28;20055;-68
2020/12/23 03:33:00;;;;;;;0.10;0.10;;;;;;;12.38;100.00;100500.97;5075295;28;20412;-70
2020/12/23 03:35:44;;;;;;;0.30;0.30;;;;;;;12.34;100.00;100494.25;5074942;28;20047;-69
2020/12/23 03:38:28;;;;;;;0.10;0.10;;;;;;;12.33;100.00;100497.06;5076098;28;20154;-69
2020/12/23 03:41:12;;;;;;;0.10;0.10;;;;;;;12.35;100.00;100487.94;5074857;28;20048;-69
2020/12/23 03:43:56;;;;;;;0.40;0.40;;;;;;;12.35;100.00;100498.63;5075859;28;20052;-69
2020/12/23 03:46:40;;;;;;;0.10;0.10;;;;;;;12.36;100.00;100486.94;5060581;28;20078;-69
2020/12/23 03:49:24;;;;;;;0.20;0.20;;;;;;;12.41;100.00;100484.63;5075992;28;20193;-68
2020/12/23 03:52:08;;;;;;;0.10;0.10;;;;;;;12.41;100.00;100489.97;5075916;28;20136;-68
2020/12/23 03:54:52;;;;;;;0.20;0.20;;;;;;;12.41;100.00;100481.13;5060193;28;20051;-68
2020/12/23 03:57:36;;;;;;;0.20;0.20;;;;;;;12.46;100.00;100479.69;5074549;28;20098;-68
2020/12/23 04:00:20;;;;;;;0.10;0.10;;;;;;;12.48;100.00;100474.19;5075822;28;20044;-68
2020/12/23 04:03:05;;;;;;;0.10;0.10;;;;;;;12.53;100.00;100479.91;5074734;28;20047;-68
2020/12/23 04:05:48;;;;;;;0.10;0.10;;;;;;;12.52;100.00;100473.75;5075701;28;20047;-68
2020/12/23 04:08:33;;;;;;;0.10;0.10;;;;;;;12.58;100.00;100473.13;5075623;28;20047;-68
2020/12/23 04:11:17;;;;;;;0.32;0.32;;;;;;;12.56;100.00;100469.75;5075613;28;20568;-68
2020/12/23 04:14:03;;;;;;;0.20;0.20;;;;;;;12.58;100.00;100461.59;5075586;28;20550;-68
2020/12/23 04:16:47;;;;;;;0.30;0.30;;;;;;;12.59;100.00;100457.94;5075437;28;20046;-68
2020/12/23 04:19:31;;;;;;;0.10;0.10;;;;;;;12.62;100.00;100453.09;5074368;28;20066;-68
2020/12/23 04:22:15;;;;;;;0.32;0.32;;;;;;;12.58;100.00;100458.94;5074130;28;20475;-68
2020/12/23 04:24:59;;;;;;;;;;;;;;;12.54;100.00;100450.38;5074771;28;20070;-68
2020/12/23 04:27:43;;;;;;;0.57;0.57;;;;;;;12.50;100.00;100430.25;5074079;28;19919;-68
2020/12/23 04:30:27;;;;;;;0.20;0.20;;;;;;;12.48;100.00;100437.59;5075212;28;20043;-68
2020/12/23 04:33:12;;;;;;;0.10;0.10;;;;;;;12.43;100.00;100429.19;5073970;28;20066;-68
2020/12/23 04:35:56;;;;;;;0.10;0.10;;;;;;;12.48;100.00;100434.91;5074053;28;20119;-68
2020/12/23 04:38:40;;;;;;;0.10;0.10;;;;;;;12.41;100.00;100423.13;5073852;28;20052;-68
2020/12/23 04:41:27;;;;;;;0.10;0.10;;;;;;;12.45;100.00;100421.84;5076347;28;20182;-68
2020/12/23 04:44:11;;;;;;;0.10;0.10;;;;;;;12.41;100.00;100417.78;5059941;28;20135;-68
2020/12/23 04:46:56;;;;;;;0.30;0.30;;;;;;;12.39;100.00;100419.78;5073842;28;20043;-68
2020/12/23 04:49:44;;;;;;;0.10;0.10;;;;;;;12.35;100.00;100418.41;5073670;28;20547;-68
2020/12/23 04:52:38;;;;;;;0.10;0.10;;;;;;;12.36;100.00;100409.41;5073767;28;20047;-68
2020/12/23 04:55:23;;;;;;;0.30;0.30;;;;;;;12.36;100.00;100409.41;5073589;28;20047;-67
2020/12/23 04:58:07;;;;;;;0.10;0.10;;;;;;;12.35;100.00;100409.53;5073490;28;20047;-68
2020/12/23 05:00:51;;;;;;;0.10;0.10;;;;;;;12.32;100.00;100404.50;5074342;28;20171;-68
2020/12/23 05:03:35;;;;;;;0.20;0.20;;;;;;;12.33;100.00;100404.38;5059710;28;20055;-68
2020/12/23 05:06:20;;;;;;;0.10;0.10;;;;;;;12.32;100.00;100402.69;5073236;28;20428;-69
2020/12/23 05:09:06;;;;;;;0.10;0.10;;;;;;;12.32;100.00;100405.38;5074394;28;20051;-68
2020/12/23 05:11:49;;;;;;;0.10;0.10;;;;;;;12.30;100.00;100401.97;5074404;28;20074;-68
2020/12/23 05:14:33;;;;;;;1.35;0.68;;;;;;;12.35;100.00;100398.84;5073027;28;20083;-68
2020/12/23 05:17:17;;;;;;;0.10;0.10;;;;;;;12.33;100.00;100392.81;5073946;28;20051;-68
2020/12/23 05:20:03;;;;;;;0.10;0.10;;;;;;;12.38;100.00;100388.69;5073932;28;20082;-68
2020/12/23 05:22:49;;;;;;;4.72;1.75;;;;;;;12.41;100.00;100390.22;5072889;28;20051;-68
2020/12/23 05:25:34;;;;;;;0.10;0.10;;;;;;;12.33;100.00;100388.34;5074058;28;20051;-68
2020/12/23 05:28:18;;;;;;;0.20;0.20;;;;;;;12.36;100.00;100396.03;5073999;28;20599;-68
2020/12/23 05:31:06;;;;;;;0.40;0.40;;;;;;;12.30;100.00;100393.94;5058828;28;20121;-68
2020/12/23 05:33:52;;;;;;;0.10;0.10;;;;;;;12.29;100.00;100392.28;5072912;28;20043;-67
2020/12/23 05:36:39;;;;;;;0.28;0.28;;;;;;;12.37;100.00;100389.69;5073645;28;20416;-68
2020/12/23 05:39:23;;;;;;;0.60;0.45;;;;;;;12.34;100.00;100384.66;5072623;28;20047;-68
2020/12/23 05:42:07;;;;;;;0.35;0.35;;;;;;;12.33;100.00;100388.34;5072813;28;20472;-68
2020/12/23 05:44:55;;;;;;;0.10;0.10;;;;;;;12.31;100.00;100384.94;5058682;28;20077;-68
2020/12/23 05:47:39;;;;;;;0.20;0.20;;;;;;;12.28;100.00;100387.09;5073404;28;20073;-68
2020/12/23 05:50:24;;;;;;;0.50;0.50;;;;;;;12.29;100.00;100384.25;5072372;28;20051;-67
2020/12/23 05:53:15;;;;;;;0.65;0.65;;;;;;;12.26;100.00;100384.56;5058297;28;20508;-67
2020/12/23 05:56:00;;;;;;;0.10;0.10;;;;;;;12.25;100.00;100385.56;5058209;28;20051;-68
2020/12/23 05:58:45;;;;;;;0.10;0.10;;;;;;;12.23;100.00;100384.03;5058201;28;20051;-68
2020/12/23 06:01:36;;;;;;;0.10;0.10;;;;;;;12.16;100.00;100381.13;5073559;28;20555;-68
2020/12/23 06:04:21;;;;;;;0.30;0.30;;;;;;;12.09;100.00;100382.72;5058121;28;20078;-68
2020/12/23 06:07:06;;;;;;;0.20;0.20;;;;;;;12.00;100.00;100380.94;5072362;28;20051;-68
2020/12/23 06:09:52;;;;;;;0.10;0.10;;;;;;;11.95;100.00;100388.59;5072131;28;20492;-67
2020/12/23 06:12:39;;;;;;;0.10;0.10;;;;;;;11.97;100.00;100397.28;5073188;28;20059;-68
2020/12/23 06:15:29;;;;;;;0.10;0.10;;;;;;;11.92;100.00;100399.56;5072350;28;20178;-68
2020/12/23 06:18:18;;;;;;;0.10;0.10;;;;;;;11.89;100.00;100404.38;5072403;28;20052;-68
2020/12/23 06:21:06;;;;;;;0.30;0.30;;;;;;;11.85;100.00;100395.81;5072264;28;20043;-68
2020/12/23 06:24:10;;;;;;;0.43;0.43;;;;;;;11.86;100.00;100396.66;5072336;28;20056;-68
2020/12/23 06:26:56;;;;;;;0.10;0.10;;;;;;;11.88;100.00;100386.66;5071998;28;20432;-68
2020/12/23 06:29:43;;;;;;;0.13;0.13;;;;;;;11.96;100.00;100384.91;5073227;28;20135;-68
2020/12/23 06:32:28;;;;;;;0.70;0.45;;;;;;;11.91;100.00;100376.53;5072322;28;20098;-68
2020/12/23 06:35:12;;;;;;;0.90;0.45;;;;;;;11.90;100.00;100380.16;5072029;28;20570;-68
2020/12/23 06:37:56;;;;;;;0.10;0.10;;;;;;;11.94;100.00;100376.22;5071852;28;20581;-68
2020/12/23 06:41:00;;;;;;;0.65;0.65;;;;;;;12.01;100.00;100385.31;5073169;28;20411;-68
2020/12/23 06:43:54;;;;;;;0.10;0.10;;;;;;;12.02;100.00;100379.00;5073426;28;20511;-68
2020/12/23 06:47:04;;;;;;;;;;;;;;;12.02;100.00;100370.97;5073437;28;20093;-68
2020/12/23 06:50:00;;;;;;;0.17;0.17;;;;;;;12.06;100.00;100374.16;5071729;28;19959;-68
2020/12/23 06:52:45;;;;;;;0.10;0.10;;;;;;;12.00;100.00;100367.59;5072075;28;20122;-68
2020/12/23 06:55:46;;;;;;;0.25;0.25;;;;;;;12.00;100.00;100362.25;5071974;28;20081;-68
2020/12/23 06:58:38;;;;;;;0.15;0.15;;;;;;;11.97;100.00;100370.56;5071652;28;20071;-68
2020/12/23 07:01:22;;;;;;;0.10;0.10;;;;;;;11.92;100.00;100370.19;5072009;28;20195;-67
2020/12/23 07:04:07;;;;;;;0.47;0.40;;;;;;;11.91;100.00;100360.50;5073056;28;20120;-67
2020/12/23 07:06:51;;;;;;;0.55;0.55;;;;;;;11.90;100.00;100358.78;5072581;28;20046;-67
2020/12/23 07:09:35;;;;;;;0.13;0.13;;;;;;;11.88;100.00;100359.97;5072766;28;20052;-67
2020/12/23 07:12:22;;;;;;;0.10;0.10;;;;;;;11.91;100.00;100365.84;5057666;28;20052;-67
2020/12/23 07:15:08;;;;;;;0.10;0.10;;;;;;;11.91;100.00;100376.53;5071874;28;20052;-67
2020/12/23 07:18:02;;;;;;;0.40;0.40;;;;;;;11.88;100.00;100370.63;5071736;28;20137;-67
2020/12/23 07:20:51;;;;;;;0.10;0.10;;;;;;;11.89;100.00;100362.47;5072566;28;20106;-67
2020/12/23 07:23:35;;;;;;;0.45;0.45;;;;;;;11.88;100.00;100365.31;5071792;28;20121;-67
2020/12/23 07:26:21;;;;;;;0.28;0.28;;;;;;;11.91;100.00;100375.69;5072396;28;20048;-69
2020/12/23 07:29:09;;;;;;;0.10;0.10;;;;;;;11.88;100.00;100371.47;5059416;28;20048;-68
2020/12/23 07:31:53;;;;;;;0.10;0.10;;;;;;;11.87;100.00;100369.78;5076267;28;20531;-67
2020/12/23 07:34:37;;;;;;;0.10;0.10;;;;;;;11.87;100.00;100374.31;5075321;28;20078;-67
2020/12/23 07:37:21;;;;;;;0.20;0.20;;;;;;;11.84;100.00;100370.09;5074831;28;20051;-67
2020/12/23 07:40:15;;;;;;;0.10;0.10;;;;;;;11.87;100.00;100380.47;5075886;28;20051;-67
2020/12/23 07:43:00;;;;;;;0.20;0.20;;;;;;;11.87;100.00;100364.44;5074892;28;20097;-67
2020/12/23 07:45:44;;;;;;;0.25;0.25;;;;;;;11.84;100.00;100362.09;5074794;28;20059;-67
2020/12/23 07:48:29;;;;;;;0.25;0.17;;;;;;;11.88;100.00;100367.97;5074674;28;20594;-67
2020/12/23 07:51:13;;;;;;;0.32;0.32;;;;;;;11.87;100.00;100369.78;5075617;28;20119;-67
2020/12/23 07:53:57;;;;;;;0.20;0.20;;;;;;;11.85;100.00;100369.09;5075598;28;20093;-67
2020/12/23 07:56:41;;;;;;;;;;;;;;;11.87;100.00;100367.13;5074900;28;20102;-67
2020/12/23 07:59:25;;;;;;;0.10;0.10;;;;;;;11.87;100.00;100359.09;5075577;28;19930;-67
2020/12/23 08:02:09;;;;;;;0.20;0.20;;;;;;;11.89;100.00;100366.97;5075911;28;20109;-67
2020/12/23 08:04:54;;;;;;;0.10;0.10;;;;;;;11.88;100.00;100360.78;5074548;28;20079;-67
2020/12/23 08:07:38;;;;;;;0.10;0.10;;;;;;;11.89;100.00;100357.13;5075507;28;20047;-67
2020/12/23 08:10:22;;;;;;;0.10;0.10;;;;;;;11.93;100.00;100365.69;5075500;28;20051;-67
2020/12/23 08:13:06;;;;;;;0.10;0.10;;;;;;;11.96;100.00;100357.34;5075594;28;20066;-67
2020/12/23 08:16:01;;;;;;;0.47;0.47;;;;;;;12.08;100.00;100362.34;5075437;28;20152;-67
2020/12/23 08:18:52;;;;;;;0.10;0.10;;;;;;;12.16;100.00;100359.75;5074152;28;20043;-67
2020/12/23 08:21:36;;;;;;;0.45;0.45;;;;;;;12.24;100.00;100359.84;5075135;28;20105;-67
2020/12/23 08:24:20;;;;;;;0.20;0.20;;;;;;;12.25;100.00;100357.97;5074377;28;20048;-67
2020/12/23 08:27:04;;;;;;;0.20;0.20;;;;;;;12.24;100.00;100362.50;5075034;28;20047;-67
2020/12/23 08:29:48;;;;;;;0.10;0.10;;;;;;;12.32;100.00;100349.22;5073885;28;20091;-68
2020/12/23 08:32:43;;;;;;;0.20;0.20;;;;;;;12.43;100.00;100357.00;5060075;28;20583;-68
2020/12/23 08:35:29;;;;;;;0.10;0.10;;;;;;;12.44;100.00;100358.69;5074208;28;20043;-67
2020/12/23 08:38:17;;;;;;;0.93;0.85;;;;;;;12.48;100.00;100370.75;5073651;28;20502;-67
2020/12/23 08:41:01;;;;;;;0.28;0.28;;;;;;;12.46;100.00;100359.38;5073480;28;20051;-67
2020/12/23 08:43:50;;;;;;;0.10;0.10;;;;;;;12.48;100.00;100354.69;5075293;28;20531;-67
2020/12/23 08:46:37;;;;;;;0.10;0.10;;;;;;;12.50;100.00;100352.69;5073592;28;20051;-68
2020/12/23 08:49:21;;;;;;;0.10;0.10;;;;;;;12.53;100.00;100357.78;5059286;28;20055;-68
2020/12/23 08:52:19;;;;;;;0.20;0.20;;;;;;;12.53;100.00;100359.59;5059656;28;20056;-68
2020/12/23 08:55:13;;;;;;;1.48;0.75;;;;;;;12.54;100.00;100367.47;5073438;28;20055;-68
2020/12/23 08:58:07;;;;;;;0.10;0.10;;;;;;;12.55;100.00;100366.47;5073418;28;20047;-68
2020/12/23 09:01:01;;;;;;;0.25;0.25;;;;;;;12.61;100.00;100367.69;5073674;28;20158;-68
2020/12/23 09:03:56;;;;;;;0.65;0.52;;;;;;;12.60;100.00;100358.81;5073377;28;20051;-67
2020/12/23 09:06:41;;;;;;;0.10;0.10;;;;;;;12.62;100.00;100356.00;5073341;28;20401;-67
2020/12/23 09:09:25;;;;;;;0.10;0.10;;;;;;;12.62;100.00;100356.81;5074448;28;20055;-67
2020/12/23 09:12:18;;;;;;;0.15;0.15;;;;;;;12.62;100.00;100367.50;5074259;28;20070;-67
2020/12/23 09:15:12;;;;;;;0.43;0.43;;;;;;;12.60;100.00;100348.09;5074551;28;20174;-67
2020/12/23 09:18:09;;;;;;;0.35;0.20;;;;;;;12.66;100.00;100347.50;5073233;28;20570;-68
2020/12/23 09:20:58;;;;;;;0.15;0.15;;;;;;;12.73;100.00;100348.56;5073059;28;20082;-67
2020/12/23 09:23:42;;;;;;;0.10;0.10;;;;;;;12.78;100.00;100340.91;5059299;28;20447;-67
2020/12/23 09:26:26;;;;;;;0.10;0.10;;;;;;;12.80;100.00;100354.94;5074122;28;20421;-67
2020/12/23 09:29:11;;;;;;;0.10;0.10;;;;;;;12.81;100.00;100350.47;5072720;28;20124;-67
2020/12/23 09:31:55;;;;;;;0.15;0.15;;;;;;;12.90;100.00;100347.66;5073035;28;20101;-67
2020/12/23 09:34:39;;;;;;;0.20;0.20;;;;;;;13.03;100.00;100342.75;5058953;28;20051;-67
2020/12/23 09:37:29;;;;;;;0.10;0.10;;;;;;;13.15;100.00;100339.66;5072541;28;20504;-67
2020/12/23 09:40:15;;;;;;;0.15;0.15;;;;;;;13.21;100.00;100327.47;5072667;28;20047;-68
2020/12/23 09:42:59;;;;;;;0.10;0.10;;;;;;;13.23;100.00;100325.47;5072766;28;20055;-68
2020/12/23 09:45:42;;;;;;;0.10;0.10;;;;;;;13.29;100.00;100327.53;5073078;28;20100;-68
2020/12/23 09:48:28;;;;;;;0.20;0.20;;;;;;;13.29;100.00;100322.19;5072494;28;20132;-68
2020/12/23 09:51:11;;;;;;;0.10;0.10;;;;;;;13.39;100.00;100315.72;5071983;28;20055;-68
2020/12/23 09:53:56;;;;;;;0.30;0.30;;;;;;;13.42;100.00;100314.53;5072445;28;20051;-68
2020/12/23 09:56:46;;;;;;;0.15;0.15;;;;;;;13.42;100.00;100311.84;5073337;28;20090;-68
2020/12/23 09:59:30;;;;;;;2.25;1.10;;;;;;;13.43;100.00;100302.81;5072524;28;20125;-68
2020/12/23 10:02:14;;;;;;;0.10;0.10;;;;;;;13.45;100.00;100292.81;5073494;28;20044;-68
2020/12/23 10:04:59;;;;;;;0.10;0.10;;;;;;;13.48;99.67;100287.94;5072575;28;20571;-68
2020/12/23 10:07:43;;;;;;;0.50;0.50;;;;;;;13.49;100.00;100270.91;5072446;28;20135;-68
2020/12/23 10:10:27;;;;;;;0.57;0.57;;;;;;;13.52;99.74;100270.56;5073145;28;20132;-68
2020/12/23 10:13:11;;;;;;;0.20;0.20;;;;;;;13.56;100.00;100257.69;5071285;28;20148;-68
2020/12/23 10:15:55;;;;;;;0.10;0.10;;;;;;;13.59;98.64;100252.00;5058321;28;20047;-68
2020/12/23 10:18:39;;;;;;;0.10;0.10;;;;;;;13.60;98.98;100246.47;5072291;28;20090;-69
2020/12/23 10:21:23;;;;;;;0.20;0.20;;;;;;;13.62;99.60;100246.31;5073420;28;20039;-69
2020/12/23 10:24:07;;;;;;;1.25;0.47;;;;;;;13.62;99.53;100247.16;5072717;28;20409;-68
2020/12/23 10:26:52;;;;;;;0.25;0.25;;;;;;;13.69;96.29;100236.63;5073015;28;20087;-69
2020/12/23 10:29:36;;;;;;;0.28;0.28;;;;;;;13.67;96.52;100228.72;5072222;28;20098;-69
2020/12/23 10:32:20;;;;;;;0.45;0.45;;;;;;;13.67;96.83;100222.56;5073046;28;20119;-68
2020/12/23 10:35:04;;;;;;;0.20;0.20;;;;;;;13.66;100.00;100227.06;5073329;28;20047;-69
2020/12/23 10:37:48;;;;;;;0.10;0.10;;;;;;;13.80;95.72;100218.38;5072962;28;20059;-69
2020/12/23 10:40:32;;;;;;;1.40;0.50;;;;;;;13.86;94.47;100219.56;5071967;28;20063;-68
2020/12/23 10:43:16;;;;;;;0.50;0.50;;;;;;;13.89;94.78;100212.00;5058308;28;20079;-67
2020/12/23 10:46:00;;;;;;;0.43;0.43;;;;;;;13.97;94.13;100201.28;5073461;28;20047;-69
2020/12/23 10:48:44;;;;;;;0.10;0.10;;;;;;;14.21;90.96;100200.50;5073143;28;20416;-69
2020/12/23 10:51:28;;;;;;;1.85;0.55;;;;;;;14.26;91.80;100198.16;5072996;28;20090;-69
2020/12/23 10:54:12;;;;;;;0.10;0.10;;;;;;;14.40;89.47;100195.59;5073408;28;20060;-69
2020/12/23 10:56:57;;;;;;;0.10;0.10;;;;;;;14.50;88.13;100190.88;5071715;28;20054;-69
2020/12/23 10:59:41;;;;;;;0.10;0.10;;;;;;;14.59;88.23;100189.03;5071836;28;20066;-69
2020/12/23 11:02:26;;;;;;;0.10;0.10;;;;;;;14.71;87.33;100193.03;5058567;28;20151;-69
2020/12/23 11:05:10;;;;;;;0.10;0.10;;;;;;;14.77;84.51;100200.38;5076925;28;20063;-69
2020/12/23 11:07:54;;;;;;;0.10;0.10;;;;;;;14.83;83.29;100186.28;5076576;28;20420;-69
2020/12/23 11:10:38;;;;;;;0.73;0.73;;;;;;;14.82;86.16;100182.75;5076428;28;20542;-69
2020/12/23 11:13:22;;;;;;;0.10;0.10;;;;;;;14.87;85.12;100176.84;5076494;28;20131;-68
2020/12/23 11:16:06;;;;;;;0.20;0.20;;;;;;;14.84;83.65;100175.38;5076395;28;20055;-69
2020/12/23 11:18:50;;;;;;;0.10;0.10;;;;;;;14.86;83.49;100197.50;5076343;28;20056;-69
2020/12/23 11:21:33;;;;;;;0.10;0.10;;;;;;;14.75;84.85;100180.94;5076636;28;20052;-69
2020/12/23 11:24:17;;;;;;;0.57;0.57;;;;;;;14.68;84.97;100169.22;5075499;28;20055;-70
2020/12/23 11:27:01;;;;;;;0.20;0.20;;;;;;;14.68;85.31;100166.53;5061431;28;20051;-69
2020/12/23 11:29:45;;;;;;;0.30;0.30;;;;;;;14.68;85.18;100171.91;5047265;28;20051;-70
2020/12/23 11:32:29;;;;;;;0.68;0.68;;;;;;;14.74;85.03;100161.31;5075390;28;20087;-69
2020/12/23 11:35:13;;;;;;;0.10;0.10;;;;;;;14.70;85.15;100164.53;5075195;28;20102;-69
2020/12/23 11:37:57;;;;;;;0.10;0.10;;;;;;;14.57;87.05;100166.91;5076047;28;20055;-69
2020/12/23 11:40:41;;;;;;;0.35;0.35;;;;;;;14.49;88.72;100161.56;5075972;28;20127;-68
2020/12/23 11:43:25;;;;;;;0.10;0.10;;;;;;;14.43;88.92;100167.59;5075384;28;20047;-69
2020/12/23 11:46:10;;;;;;;0.10;0.10;;;;;;;14.37;89.65;100157.56;5075101;28;20073;-68
2020/12/23 11:48:54;;;;;;;0.15;0.15;;;;;;;14.36;90.83;100172.81;5074896;28;20051;-69
2020/12/23 11:51:38;;;;;;;0.10;0.10;;;;;;;14.31;91.23;100168.97;5075036;28;20432;-68
2020/12/23 11:54:22;;;;;;;0.65;0.32;;;;;;;14.32;90.11;100154.56;5075742;28;20044;-69
2020/12/23 11:57:07;;;;;;;0.10;0.10;;;;;;;14.36;90.68;100146.00;5075910;28;20094;-69
2020/12/23 11:59:51;;;;;;;0.10;0.10;;;;;;;14.37;89.75;100141.47;5074619;28;20043;-69
2020/12/23 12:02:34;;;;;;;0.10;0.10;;;;;;;14.48;89.41;100143.81;5075720;28;20133;-68
2020/12/23 12:05:18;;;;;;;0.10;0.10;;;;;;;14.53;88.17;100154.84;5075121;28;20051;-69
2020/12/23 12:08:07;;;;;;;0.68;0.38;;;;;;;14.58;88.72;100133.72;5074521;28;20511;-69
2020/12/23 12:10:52;;;;;;;0.10;0.10;;;;;;;14.61;88.10;100122.63;5060959;28;20040;-69
2020/12/23 12:13:37;;;;;;;0.10;0.10;;;;;;;14.62;87.62;100119.78;5075070;28;20098;-69
2020/12/23 12:16:21;;;;;;;0.20;0.20;;;;;;;14.59;86.91;100113.91;5074502;28;20550;-69
2020/12/23 12:19:04;;;;;;;4.35;2.17;;;;;;;14.51;88.00;100116.63;5060392;28;20085;-69
2020/12/23 12:21:49;;;;;;;0.10;0.10;;;;;;;14.47;88.61;100123.34;5075412;28;20065;-69
2020/12/23 12:24:32;;;;;;;0.10;0.10;;;;;;;14.47;87.45;100120.69;5075277;28;20082;-69
2020/12/23 12:27:16;;;;;;;0.10;0.10;;;;;;;14.44;88.03;100104.91;5075299;28;20067;-69
2020/12/23 12:30:01;;;;;;;0.10;0.10;;;;;;;14.40;87.97;100103.59;5074266;28;20098;-69
2020/12/23 12:32:46;;;;;;;0.30;0.30;;;;;;;14.41;88.65;100099.91;5074172;28;20052;-69
2020/12/23 12:35:33;;;;;;;0.15;0.15;;;;;;;14.34;88.70;100093.53;5074920;28;20083;-69
2020/12/23 12:38:17;;;;;;;0.10;0.10;;;;;;;14.28;89.43;100096.94;5073735;28;20047;-69
2020/12/23 12:41:08;;;;;;;0.10;0.10;;;;;;;14.30;88.83;100093.03;5075097;28;20047;-69
2020/12/23 12:43:53;;;;;;;0.40;0.40;;;;;;;14.27;89.75;100089.88;5074717;28;20086;-69